sensor_id;sensor_type;location;lat;lon;timestamp;pressure;altitude;pressure_sealevel;temperature;humidity
44934;BME280;30667;43.614;1.442;2023-06-22T00:01:21;99751.16;;;21.22;100.00
44934;BME280;30667;43.614;1.442;2023-06-22T00:03:50;99756.75;;;21.26;100.00
44934;BME280;30667;43.614;1.442;2023-06-22T00:06:15;99756.84;;;21.14;100.00
44934;BME280;30667;43.614;1.442;2023-06-22T00:08:41;99766.88;;;21.22;100.00
44934;BME280;30667;43.614;1.442;2023-06-22T00:11:06;99779.66;;;21.14;100.00
44934;BME280;30667;43.614;1.442;2023-06-22T00:13:32;99773.81;;;21.16;100.00
44934;BME280;30667;43.614;1.442;2023-06-22T00:15:57;99779.19;;;21.28;100.00
44934;BME280;30667;43.614;1.442;2023-06-22T00:18:23;99774.88;;;21.27;100.00
44934;BME280;30667;43.614;1.442;2023-06-22T00:20:53;99776.00;;;21.26;100.00
44934;BME280;30667;43.614;1.442;2023-06-22T00:23:22;99761.81;;;21.24;100.00
44934;BME280;30667;43.614;1.442;2023-06-22T00:25:49;99764.84;;;21.19;100.00
44934;BME280;30667;43.614;1.442;2023-06-22T00:28:14;99762.69;;;21.28;100.00
44934;BME280;30667;43.614;1.442;2023-06-22T00:30:40;99769.44;;;21.31;100.00
44934;BME280;30667;43.614;1.442;2023-06-22T00:33:06;99769.72;;;21.26;100.00
44934;BME280;30667;43.614;1.442;2023-06-22T00:35:33;99788.44;;;21.20;100.00
44934;BME280;30667;43.614;1.442;2023-06-22T00:37:59;99789.84;;;21.14;100.00
44934;BME280;30667;43.614;1.442;2023-06-22T00:40:30;99804.59;;;21.37;100.00
44934;BME280;30667;43.614;1.442;2023-06-22T00:42:57;99801.06;;;21.37;100.00
44934;BME280;30667;43.614;1.442;2023-06-22T00:45:23;99807.00;;;21.39;100.00
44934;BME280;30667;43.614;1.442;2023-06-22T00:47:56;99805.03;;;21.39;100.00
44934;BME280;30667;43.614;1.442;2023-06-22T00:50:25;99815.69;;;21.41;100.00
44934;BME280;30667;43.614;1.442;2023-06-22T00:52:53;99814.81;;;21.37;100.00
44934;BME280;30667;43.614;1.442;2023-06-22T00:55:20;99825.28;;;21.47;100.00
44934;BME280;30667;43.614;1.442;2023-06-22T00:57:46;99809.56;;;21.48;100.00
44934;BME280;30667;43.614;1.442;2023-06-22T01:00:14;99822.97;;;21.33;100.00
44934;BME280;30667;43.614;1.442;2023-06-22T01:02:42;99829.91;;;21.27;100.00
44934;BME280;30667;43.614;1.442;2023-06-22T01:05:11;99827.84;;;21.24;100.00
44934;BME280;30667;43.614;1.442;2023-06-22T01:07:52;99834.94;;;21.25;100.00
44934;BME280;30667;43.614;1.442;2023-06-22T01:13:03;99843.19;;;21.09;100.00
44934;BME280;30667;43.614;1.442;2023-06-22T01:15:47;99835.19;;;21.04;100.00
44934;BME280;30667;43.614;1.442;2023-06-22T01:18:17;99836.72;;;21.01;100.00
44934;BME280;30667;43.614;1.442;2023-06-22T01:20:44;99827.72;;;20.89;100.00
44934;BME280;30667;43.614;1.442;2023-06-22T01:28:57;99842.94;;;20.70;100.00
44934;BME280;30667;43.614;1.442;2023-06-22T01:31:26;99853.13;;;20.70;100.00
44934;BME280;30667;43.614;1.442;2023-06-22T01:33:55;99863.78;;;20.71;100.00
44934;BME280;30667;43.614;1.442;2023-06-22T01:36:24;99868.03;;;20.68;100.00
44934;BME280;30667;43.614;1.442;2023-06-22T01:38:50;99863.09;;;20.62;100.00
44934;BME280;30667;43.614;1.442;2023-06-22T01:41:17;99881.16;;;20.63;100.00
44934;BME280;30667;43.614;1.442;2023-06-22T01:43:43;99883.13;;;20.62;100.00
44934;BME280;30667;43.614;1.442;2023-06-22T01:46:10;99881.41;;;20.58;100.00
44934;BME280;30667;43.614;1.442;2023-06-22T01:48:37;99889.13;;;20.52;100.00
44934;BME280;30667;43.614;1.442;2023-06-22T01:51:03;99880.53;;;20.54;100.00
44934;BME280;30667;43.614;1.442;2023-06-22T01:53:29;99876.63;;;20.55;100.00
44934;BME280;30667;43.614;1.442;2023-06-22T01:55:55;99869.97;;;20.56;100.00
44934;BME280;30667;43.614;1.442;2023-06-22T01:58:25;99881.09;;;20.47;100.00
44934;BME280;30667;43.614;1.442;2023-06-22T02:00:56;99884.53;;;20.56;100.00
44934;BME280;30667;43.614;1.442;2023-06-22T02:03:30;99886.25;;;20.48;100.00
44934;BME280;30667;43.614;1.442;2023-06-22T02:06:03;99893.97;;;20.43;100.00
44934;BME280;30667;43.614;1.442;2023-06-22T02:08:31;99900.16;;;20.40;100.00
44934;BME280;30667;43.614;1.442;2023-06-22T02:10:58;99891.91;;;20.40;100.00
44934;BME280;30667;43.614;1.442;2023-06-22T02:13:25;99900.03;;;20.36;100.00
44934;BME280;30667;43.614;1.442;2023-06-22T02:15:51;99899.81;;;20.29;100.00
44934;BME280;30667;43.614;1.442;2023-06-22T02:18:17;99908.13;;;20.45;100.00
44934;BME280;30667;43.614;1.442;2023-06-22T02:20:42;99900.59;;;20.29;100.00
44934;BME280;30667;43.614;1.442;2023-06-22T02:23:08;99893.53;;;20.28;100.00
44934;BME280;30667;43.614;1.442;2023-06-22T02:25:34;99904.75;;;20.23;100.00
44934;BME280;30667;43.614;1.442;2023-06-22T02:28:01;99913.00;;;20.23;100.00
44934;BME280;30667;43.614;1.442;2023-06-22T02:30:26;99915.28;;;20.21;100.00
44934;BME280;30667;43.614;1.442;2023-06-22T02:32:52;99912.75;;;20.16;100.00
44934;BME280;30667;43.614;1.442;2023-06-22T02:35:25;99920.31;;;20.19;100.00
44934;BME280;30667;43.614;1.442;2023-06-22T02:37:51;99915.97;;;20.18;100.00
44934;BME280;30667;43.614;1.442;2023-06-22T02:40:17;99918.84;;;20.09;100.00
44934;BME280;30667;43.614;1.442;2023-06-22T02:42:43;99924.00;;;20.11;100.00
44934;BME280;30667;43.614;1.442;2023-06-22T02:45:09;99930.50;;;20.06;100.00
44934;BME280;30667;43.614;1.442;2023-06-22T02:47:34;99927.09;;;20.09;100.00
44934;BME280;30667;43.614;1.442;2023-06-22T02:50:00;99919.28;;;20.11;100.00
44934;BME280;30667;43.614;1.442;2023-06-22T02:52:26;99924.00;;;20.11;100.00
44934;BME280;30667;43.614;1.442;2023-06-22T02:54:51;99935.44;;;20.13;100.00
44934;BME280;30667;43.614;1.442;2023-06-22T02:57:17;99931.31;;;20.19;100.00
44934;BME280;30667;43.614;1.442;2023-06-22T02:59:42;99919.41;;;20.15;100.00
44934;BME280;30667;43.614;1.442;2023-06-22T03:02:08;99910.94;;;20.08;100.00
44934;BME280;30667;43.614;1.442;2023-06-22T03:04:35;99898.47;;;20.10;100.00
44934;BME280;30667;43.614;1.442;2023-06-22T03:07:00;99902.38;;;20.09;100.00
44934;BME280;30667;43.614;1.442;2023-06-22T03:09:27;99902.81;;;20.11;100.00
44934;BME280;30667;43.614;1.442;2023-06-22T03:11:54;99907.97;;;20.13;100.00
44934;BME280;30667;43.614;1.442;2023-06-22T03:14:19;99909.81;;;20.09;100.00
44934;BME280;30667;43.614;1.442;2023-06-22T03:16:44;99923.75;;;20.16;100.00
44934;BME280;30667;43.614;1.442;2023-06-22T03:19:10;99921.34;;;20.14;100.00
44934;BME280;30667;43.614;1.442;2023-06-22T03:21:37;99918.41;;;20.07;100.00
44934;BME280;30667;43.614;1.442;2023-06-22T03:24:04;99927.19;;;20.13;100.00
44934;BME280;30667;43.614;1.442;2023-06-22T03:26:30;99930.97;;;20.08;100.00
44934;BME280;30667;43.614;1.442;2023-06-22T03:28:55;99929.38;;;20.07;100.00
44934;BME280;30667;43.614;1.442;2023-06-22T03:31:21;99937.94;;;20.18;100.00
44934;BME280;30667;43.614;1.442;2023-06-22T03:33:48;99937.25;;;20.21;100.00
44934;BME280;30667;43.614;1.442;2023-06-22T03:36:14;99950.63;;;20.23;100.00
44934;BME280;30667;43.614;1.442;2023-06-22T03:38:45;99960.84;;;20.22;100.00
44934;BME280;30667;43.614;1.442;2023-06-22T03:41:10;99960.72;;;20.19;100.00
44934;BME280;30667;43.614;1.442;2023-06-22T03:43:36;99963.13;;;20.20;100.00
44934;BME280;30667;43.614;1.442;2023-06-22T03:46:01;99960.03;;;20.22;100.00
44934;BME280;30667;43.614;1.442;2023-06-22T03:48:27;99958.31;;;20.17;100.00
44934;BME280;30667;43.614;1.442;2023-06-22T03:50:52;99966.44;;;20.13;100.00
44934;BME280;30667;43.614;1.442;2023-06-22T03:53:17;99960.50;;;20.11;100.00
44934;BME280;30667;43.614;1.442;2023-06-22T03:55:52;99956.94;;;20.11;100.00
44934;BME280;30667;43.614;1.442;2023-06-22T03:58:19;99945.63;;;20.12;100.00
44934;BME280;30667;43.614;1.442;2023-06-22T04:00:46;99944.00;;;20.11;100.00
44934;BME280;30667;43.614;1.442;2023-06-22T04:03:12;99934.63;;;20.12;100.00
44934;BME280;30667;43.614;1.442;2023-06-22T04:05:38;99932.22;;;20.11;100.00
44934;BME280;30667;43.614;1.442;2023-06-22T04:08:04;99939.09;;;20.05;100.00
44934;BME280;30667;43.614;1.442;2023-06-22T04:10:30;99930.16;;;20.08;100.00
44934;BME280;30667;43.614;1.442;2023-06-22T04:12:55;99929.13;;;20.12;100.00
44934;BME280;30667;43.614;1.442;2023-06-22T04:15:21;99931.53;;;20.14;100.00
44934;BME280;30667;43.614;1.442;2023-06-22T04:17:47;99936.44;;;20.08;100.00
44934;BME280;30667;43.614;1.442;2023-06-22T04:20:12;99933.38;;;20.10;100.00
44934;BME280;30667;43.614;1.442;2023-06-22T04:22:37;99935.53;;;20.17;100.00
44934;BME280;30667;43.614;1.442;2023-06-22T04:25:03;99935.44;;;20.13;100.00
44934;BME280;30667;43.614;1.442;2023-06-22T04:27:29;99935.88;;;20.15;100.00
44934;BME280;30667;43.614;1.442;2023-06-22T04:29:54;99940.34;;;20.20;100.00
44934;BME280;30667;43.614;1.442;2023-06-22T04:32:19;99934.97;;;20.23;100.00
44934;BME280;30667;43.614;1.442;2023-06-22T04:34:45;99939.31;;;20.24;100.00
44934;BME280;30667;43.614;1.442;2023-06-22T04:37:10;99944.00;;;20.24;100.00
44934;BME280;30667;43.614;1.442;2023-06-22T04:39:41;99952.94;;;20.21;100.00
44934;BME280;30667;43.614;1.442;2023-06-22T04:42:07;99966.00;;;20.24;100.00
44934;BME280;30667;43.614;1.442;2023-06-22T04:44:32;99979.72;;;20.24;100.00
44934;BME280;30667;43.614;1.442;2023-06-22T04:46:59;99988.66;;;20.21;100.00
44934;BME280;30667;43.614;1.442;2023-06-22T04:49:30;99996.78;;;20.17;100.00
44934;BME280;30667;43.614;1.442;2023-06-22T04:51:59;99989.69;;;20.16;100.00
44934;BME280;30667;43.614;1.442;2023-06-22T04:54:25;100001.59;;;20.20;100.00
44934;BME280;30667;43.614;1.442;2023-06-22T04:56:50;99998.50;;;20.22;100.00
44934;BME280;30667;43.614;1.442;2023-06-22T04:59:22;100000.44;;;20.21;100.00
44934;BME280;30667;43.614;1.442;2023-06-22T05:01:47;100000.31;;;20.18;100.00
44934;BME280;30667;43.614;1.442;2023-06-22T05:04:13;100007.63;;;20.13;100.00
44934;BME280;30667;43.614;1.442;2023-06-22T05:06:38;100011.31;;;20.18;100.00
44934;BME280;30667;43.614;1.442;2023-06-22T05:09:03;100002.28;;;20.17;100.00
44934;BME280;30667;43.614;1.442;2023-06-22T05:11:30;99998.38;;;20.18;100.00
44934;BME280;30667;43.614;1.442;2023-06-22T05:13:55;99990.94;;;20.19;100.00
44934;BME280;30667;43.614;1.442;2023-06-22T05:16:22;99979.81;;;20.15;100.00
44934;BME280;30667;43.614;1.442;2023-06-22T05:18:55;99981.09;;;20.18;100.00
44934;BME280;30667;43.614;1.442;2023-06-22T05:21:22;99978.91;;;20.36;100.00
44934;BME280;30667;43.614;1.442;2023-06-22T05:23:48;99972.69;;;20.76;100.00
44934;BME280;30667;43.614;1.442;2023-06-22T05:26:14;99984.41;;;20.73;100.00
44934;BME280;30667;43.614;1.442;2023-06-22T05:28:39;99975.66;;;20.83;100.00
44934;BME280;30667;43.614;1.442;2023-06-22T05:31:05;99977.03;;;20.77;100.00
44934;BME280;30667;43.614;1.442;2023-06-22T05:33:30;99980.03;;;20.84;100.00
44934;BME280;30667;43.614;1.442;2023-06-22T05:35:56;99990.34;;;20.87;100.00
44934;BME280;30667;43.614;1.442;2023-06-22T05:38:21;99996.53;;;20.84;100.00
44934;BME280;30667;43.614;1.442;2023-06-22T05:40:46;99994.75;;;20.92;100.00
44934;BME280;30667;43.614;1.442;2023-06-22T05:43:12;100006.13;;;20.90;100.00
44934;BME280;30667;43.614;1.442;2023-06-22T05:45:37;100019.22;;;20.81;100.00
44934;BME280;30667;43.614;1.442;2023-06-22T05:48:03;100009.00;;;20.81;100.00
44934;BME280;30667;43.614;1.442;2023-06-22T05:50:28;100027.69;;;20.76;100.00
44934;BME280;30667;43.614;1.442;2023-06-22T05:52:54;100028.50;;;20.76;100.00
44934;BME280;30667;43.614;1.442;2023-06-22T05:55:19;100041.75;;;20.86;100.00
44934;BME280;30667;43.614;1.442;2023-06-22T05:57:44;100044.94;;;21.01;100.00
44934;BME280;30667;43.614;1.442;2023-06-22T06:00:10;100032.53;;;21.19;100.00
44934;BME280;30667;43.614;1.442;2023-06-22T06:02:37;100037.25;;;21.07;100.00
44934;BME280;30667;43.614;1.442;2023-06-22T06:05:06;100036.69;;;21.41;100.00
44934;BME280;30667;43.614;1.442;2023-06-22T06:07:32;100040.78;;;21.48;100.00
44934;BME280;30667;43.614;1.442;2023-06-22T06:09:59;100037.91;;;21.44;100.00
44934;BME280;30667;43.614;1.442;2023-06-22T06:12:24;100041.31;;;21.25;100.00
44934;BME280;30667;43.614;1.442;2023-06-22T06:14:50;100041.56;;;21.20;100.00
44934;BME280;30667;43.614;1.442;2023-06-22T06:17:16;100048.88;;;21.28;100.00
44934;BME280;30667;43.614;1.442;2023-06-22T06:19:41;100053.28;;;21.57;100.00
44934;BME280;30667;43.614;1.442;2023-06-22T06:22:07;100053.00;;;21.63;100.00
44934;BME280;30667;43.614;1.442;2023-06-22T06:24:32;100059.66;;;21.62;100.00
44934;BME280;30667;43.614;1.442;2023-06-22T06:26:58;100057.72;;;21.62;100.00
44934;BME280;30667;43.614;1.442;2023-06-22T06:29:23;100056.31;;;21.68;100.00
44934;BME280;30667;43.614;1.442;2023-06-22T06:31:49;100062.59;;;21.97;100.00
44934;BME280;30667;43.614;1.442;2023-06-22T06:34:14;100065.59;;;21.92;100.00
44934;BME280;30667;43.614;1.442;2023-06-22T06:36:39;100064.97;;;21.83;100.00
44934;BME280;30667;43.614;1.442;2023-06-22T06:39:05;100067.16;;;21.77;100.00
44934;BME280;30667;43.614;1.442;2023-06-22T06:41:30;100066.44;;;21.64;100.00
44934;BME280;30667;43.614;1.442;2023-06-22T06:43:56;100074.25;;;21.62;100.00
44934;BME280;30667;43.614;1.442;2023-06-22T06:46:21;100084.59;;;21.53;100.00
44934;BME280;30667;43.614;1.442;2023-06-22T06:48:47;100087.16;;;21.33;100.00
44934;BME280;30667;43.614;1.442;2023-06-22T06:51:12;100085.97;;;21.47;100.00
44934;BME280;30667;43.614;1.442;2023-06-22T06:53:38;100087.81;;;21.42;100.00
44934;BME280;30667;43.614;1.442;2023-06-22T06:56:03;100101.13;;;21.40;100.00
44934;BME280;30667;43.614;1.442;2023-06-22T06:58:30;100100.00;;;21.41;100.00
44934;BME280;30667;43.614;1.442;2023-06-22T07:00:56;100097.25;;;21.29;100.00
44934;BME280;30667;43.614;1.442;2023-06-22T07:03:21;100091.50;;;21.34;100.00
44934;BME280;30667;43.614;1.442;2023-06-22T07:05:46;100089.59;;;21.35;100.00
44934;BME280;30667;43.614;1.442;2023-06-22T07:08:12;100090.13;;;21.40;100.00
44934;BME280;30667;43.614;1.442;2023-06-22T07:10:37;100097.38;;;21.33;100.00
44934;BME280;30667;43.614;1.442;2023-06-22T07:13:03;100089.94;;;21.33;100.00
44934;BME280;30667;43.614;1.442;2023-06-22T07:15:28;100098.81;;;21.42;100.00
44934;BME280;30667;43.614;1.442;2023-06-22T07:17:53;100100.00;;;21.41;100.00
44934;BME280;30667;43.614;1.442;2023-06-22T07:20:19;100106.19;;;21.38;100.00
44934;BME280;30667;43.614;1.442;2023-06-22T07:22:44;100108.25;;;21.41;100.00
44934;BME280;30667;43.614;1.442;2023-06-22T07:25:10;100113.84;;;21.45;100.00
44934;BME280;30667;43.614;1.442;2023-06-22T07:27:43;100118.44;;;21.41;100.00
44934;BME280;30667;43.614;1.442;2023-06-22T07:30:10;100121.78;;;21.34;100.00
44934;BME280;30667;43.614;1.442;2023-06-22T07:32:36;100121.25;;;21.29;100.00
44934;BME280;30667;43.614;1.442;2023-06-22T07:35:02;100122.69;;;21.38;100.00
44934;BME280;30667;43.614;1.442;2023-06-22T07:37:29;100116.50;;;21.41;100.00
44934;BME280;30667;43.614;1.442;2023-06-22T07:39:57;100126.34;;;21.42;100.00
44934;BME280;30667;43.614;1.442;2023-06-22T07:42:26;100122.69;;;21.38;100.00
44934;BME280;30667;43.614;1.442;2023-06-22T07:44:52;100123.38;;;21.48;100.00
44934;BME280;30667;43.614;1.442;2023-06-22T07:47:18;100130.97;;;21.38;100.00
44934;BME280;30667;43.614;1.442;2023-06-22T07:49:45;100130.50;;;21.49;100.00
44934;BME280;30667;43.614;1.442;2023-06-22T07:52:10;100131.16;;;21.46;100.00
44934;BME280;30667;43.614;1.442;2023-06-22T07:54:36;100136.56;;;21.54;100.00
44934;BME280;30667;43.614;1.442;2023-06-22T07:57:02;100134.00;;;21.62;100.00
44934;BME280;30667;43.614;1.442;2023-06-22T07:59:27;100143.84;;;21.75;100.00
44934;BME280;30667;43.614;1.442;2023-06-22T08:01:53;100135.41;;;21.84;100.00
44934;BME280;30667;43.614;1.442;2023-06-22T08:04:18;100146.00;;;21.82;100.00
44934;BME280;30667;43.614;1.442;2023-06-22T08:06:44;100139.72;;;21.97;100.00
44934;BME280;30667;43.614;1.442;2023-06-22T08:09:09;100151.03;;;22.08;100.00
44934;BME280;30667;43.614;1.442;2023-06-22T08:11:35;100148.22;;;22.20;100.00
44934;BME280;30667;43.614;1.442;2023-06-22T08:14:00;100149.47;;;22.23;100.00
44934;BME280;30667;43.614;1.442;2023-06-22T08:16:25;100151.75;;;22.21;100.00
44934;BME280;30667;43.614;1.442;2023-06-22T08:18:51;100155.22;;;22.18;100.00
44934;BME280;30667;43.614;1.442;2023-06-22T08:21:16;100162.13;;;21.95;100.00
44934;BME280;30667;43.614;1.442;2023-06-22T08:23:42;100170.25;;;21.92;100.00
44934;BME280;30667;43.614;1.442;2023-06-22T08:26:07;100166.41;;;21.81;100.00
44934;BME280;30667;43.614;1.442;2023-06-22T08:28:32;100174.94;;;21.75;100.00
44934;BME280;30667;43.614;1.442;2023-06-22T08:30:59;100171.78;;;21.89;100.00
44934;BME280;30667;43.614;1.442;2023-06-22T08:33:26;100179.19;;;22.01;100.00
44934;BME280;30667;43.614;1.442;2023-06-22T08:35:54;100182.91;;;21.93;100.00
44934;BME280;30667;43.614;1.442;2023-06-22T08:38:20;100188.09;;;21.82;100.00
44934;BME280;30667;43.614;1.442;2023-06-22T08:40:45;100187.09;;;21.74;100.00
44934;BME280;30667;43.614;1.442;2023-06-22T08:43:10;100193.28;;;21.71;100.00
44934;BME280;30667;43.614;1.442;2023-06-22T08:45:36;100201.19;;;21.73;100.00
44934;BME280;30667;43.614;1.442;2023-06-22T08:48:02;100198.66;;;21.80;100.00
44934;BME280;30667;43.614;1.442;2023-06-22T08:50:27;100201.53;;;21.71;100.00
44934;BME280;30667;43.614;1.442;2023-06-22T08:52:53;100194.09;;;21.72;100.00
44934;BME280;30667;43.614;1.442;2023-06-22T08:55:18;100209.03;;;21.58;100.00
44934;BME280;30667;43.614;1.442;2023-06-22T08:57:43;100215.13;;;21.52;100.00
44934;BME280;30667;43.614;1.442;2023-06-22T09:00:10;100205.84;;;21.56;100.00
44934;BME280;30667;43.614;1.442;2023-06-22T09:02:43;100216.31;;;21.51;100.00
44934;BME280;30667;43.614;1.442;2023-06-22T09:05:09;100230.50;;;21.40;100.00
44934;BME280;30667;43.614;1.442;2023-06-22T09:07:35;100240.25;;;21.26;100.00
44934;BME280;30667;43.614;1.442;2023-06-22T09:10:00;100248.84;;;21.24;100.00
44934;BME280;30667;43.614;1.442;2023-06-22T09:12:26;100256.06;;;21.16;100.00
44934;BME280;30667;43.614;1.442;2023-06-22T09:14:53;100257.91;;;21.00;100.00
44934;BME280;30667;43.614;1.442;2023-06-22T09:17:18;100254.94;;;21.05;100.00
44934;BME280;30667;43.614;1.442;2023-06-22T09:19:44;100250.69;;;20.95;100.00
44934;BME280;30667;43.614;1.442;2023-06-22T09:22:09;100261.22;;;21.05;100.00
44934;BME280;30667;43.614;1.442;2023-06-22T09:24:35;100253.75;;;20.81;100.00
44934;BME280;30667;43.614;1.442;2023-06-22T09:27:00;100263.78;;;20.65;100.00
44934;BME280;30667;43.614;1.442;2023-06-22T09:29:26;100269.75;;;20.67;100.00
44934;BME280;30667;43.614;1.442;2023-06-22T09:31:51;100267.41;;;20.57;100.00
44934;BME280;30667;43.614;1.442;2023-06-22T09:34:19;100281.63;;;20.59;100.00
44934;BME280;30667;43.614;1.442;2023-06-22T09:36:46;100276.88;;;20.68;100.00
44934;BME280;30667;43.614;1.442;2023-06-22T09:39:11;100268.78;;;20.63;100.00
44934;BME280;30667;43.614;1.442;2023-06-22T09:41:37;100261.50;;;20.67;100.00
44934;BME280;30667;43.614;1.442;2023-06-22T09:44:02;100271.16;;;20.73;100.00
44934;BME280;30667;43.614;1.442;2023-06-22T09:46:30;100258.88;;;20.71;100.00
44934;BME280;30667;43.614;1.442;2023-06-22T09:48:55;100264.13;;;20.76;100.00
44934;BME280;30667;43.614;1.442;2023-06-22T09:51:22;100258.22;;;20.86;100.00
44934;BME280;30667;43.614;1.442;2023-06-22T09:53:54;100254.53;;;20.82;100.00
44934;BME280;30667;43.614;1.442;2023-06-22T09:56:20;100253.06;;;20.84;100.00
44934;BME280;30667;43.614;1.442;2023-06-22T09:58:46;100253.78;;;20.94;100.00
44934;BME280;30667;43.614;1.442;2023-06-22T10:01:12;100251.50;;;21.08;100.00
44934;BME280;30667;43.614;1.442;2023-06-22T10:03:40;100249.19;;;21.10;100.00
44934;BME280;30667;43.614;1.442;2023-06-22T10:06:06;100248.06;;;21.11;100.00
44934;BME280;30667;43.614;1.442;2023-06-22T10:08:35;100245.16;;;21.08;100.00
44934;BME280;30667;43.614;1.442;2023-06-22T10:11:01;100256.44;;;21.27;100.00
44934;BME280;30667;43.614;1.442;2023-06-22T10:13:26;100258.03;;;21.40;100.00
44934;BME280;30667;43.614;1.442;2023-06-22T10:15:52;100260.78;;;21.40;100.00
44934;BME280;30667;43.614;1.442;2023-06-22T10:18:18;100258.69;;;21.37;100.00
44934;BME280;30667;43.614;1.442;2023-06-22T10:20:46;100259.63;;;21.41;100.00
44934;BME280;30667;43.614;1.442;2023-06-22T10:23:12;100264.25;;;21.50;100.00
44934;BME280;30667;43.614;1.442;2023-06-22T10:25:37;100263.88;;;21.64;100.00
44934;BME280;30667;43.614;1.442;2023-06-22T10:28:03;100263.97;;;21.80;100.00
44934;BME280;30667;43.614;1.442;2023-06-22T10:30:28;100260.72;;;21.90;100.00
44934;BME280;30667;43.614;1.442;2023-06-22T10:32:54;100265.72;;;22.00;100.00
44934;BME280;30667;43.614;1.442;2023-06-22T10:35:20;100268.91;;;22.14;100.00
44934;BME280;30667;43.614;1.442;2023-06-22T10:37:46;100270.78;;;22.10;100.00
44934;BME280;30667;43.614;1.442;2023-06-22T10:40:13;100267.06;;;22.19;100.00
44934;BME280;30667;43.614;1.442;2023-06-22T10:42:38;100277.84;;;22.24;100.00
44934;BME280;30667;43.614;1.442;2023-06-22T10:45:04;100272.91;;;22.17;100.00
44934;BME280;30667;43.614;1.442;2023-06-22T10:47:30;100268.31;;;22.21;100.00
44934;BME280;30667;43.614;1.442;2023-06-22T10:49:55;100274.28;;;22.36;100.00
44934;BME280;30667;43.614;1.442;2023-06-22T10:52:21;100280.31;;;22.41;100.00
44934;BME280;30667;43.614;1.442;2023-06-22T10:54:46;100287.28;;;22.51;100.00
44934;BME280;30667;43.614;1.442;2023-06-22T10:57:12;100278.25;;;22.66;100.00
44934;BME280;30667;43.614;1.442;2023-06-22T10:59:37;100291.78;;;22.72;100.00
44934;BME280;30667;43.614;1.442;2023-06-22T11:02:02;100281.22;;;22.74;100.00
44934;BME280;30667;43.614;1.442;2023-06-22T11:04:28;100283.34;;;22.80;100.00
44934;BME280;30667;43.614;1.442;2023-06-22T11:06:53;100284.50;;;22.79;100.00
44934;BME280;30667;43.614;1.442;2023-06-22T11:09:19;100284.22;;;22.84;100.00
44934;BME280;30667;43.614;1.442;2023-06-22T11:11:46;100278.47;;;22.90;100.00
44934;BME280;30667;43.614;1.442;2023-06-22T11:14:12;100280.97;;;22.95;100.00
44934;BME280;30667;43.614;1.442;2023-06-22T11:16:38;100279.06;;;22.99;100.00
44934;BME280;30667;43.614;1.442;2023-06-22T11:19:05;100279.34;;;22.94;100.00
44934;BME280;30667;43.614;1.442;2023-06-22T11:21:31;100286.47;;;22.95;100.00
44934;BME280;30667;43.614;1.442;2023-06-22T11:23:57;100290.66;;;22.89;100.00
44934;BME280;30667;43.614;1.442;2023-06-22T11:26:24;100285.22;;;22.92;100.00
44934;BME280;30667;43.614;1.442;2023-06-22T11:28:49;100288.06;;;22.96;100.00
44934;BME280;30667;43.614;1.442;2023-06-22T11:31:15;100279.69;;;22.92;100.00
44934;BME280;30667;43.614;1.442;2023-06-22T11:33:40;100277.28;;;22.91;100.00
44934;BME280;30667;43.614;1.442;2023-06-22T11:36:05;100285.06;;;23.01;100.00
44934;BME280;30667;43.614;1.442;2023-06-22T11:38:31;100287.91;;;23.04;100.00
44934;BME280;30667;43.614;1.442;2023-06-22T11:41:00;100276.88;;;23.04;100.00
44934;BME280;30667;43.614;1.442;2023-06-22T11:43:25;100286.25;;;23.16;100.00
44934;BME280;30667;43.614;1.442;2023-06-22T11:45:51;100275.81;;;23.09;100.00
44934;BME280;30667;43.614;1.442;2023-06-22T11:48:20;100285.97;;;23.21;100.00
44934;BME280;30667;43.614;1.442;2023-06-22T11:50:48;100285.16;;;23.20;100.00
44934;BME280;30667;43.614;1.442;2023-06-22T11:53:13;100288.66;;;23.17;100.00
44934;BME280;30667;43.614;1.442;2023-06-22T11:55:49;100277.41;;;23.26;100.00
44934;BME280;30667;43.614;1.442;2023-06-22T11:58:25;100283.41;;;23.28;100.00
44934;BME280;30667;43.614;1.442;2023-06-22T12:00:50;100283.03;;;23.30;100.00
44934;BME280;30667;43.614;1.442;2023-06-22T12:03:17;100274.75;;;23.30;100.00
44934;BME280;30667;43.614;1.442;2023-06-22T12:05:43;100287.38;;;23.31;100.00
44934;BME280;30667;43.614;1.442;2023-06-22T12:08:08;100275.47;;;23.27;100.00
44934;BME280;30667;43.614;1.442;2023-06-22T12:10:34;100280.09;;;23.23;100.00
44934;BME280;30667;43.614;1.442;2023-06-22T12:12:59;100275.28;;;23.19;100.00
44934;BME280;30667;43.614;1.442;2023-06-22T12:15:26;100273.50;;;23.27;100.00
44934;BME280;30667;43.614;1.442;2023-06-22T12:17:52;100271.09;;;23.26;100.00
44934;BME280;30667;43.614;1.442;2023-06-22T12:20:21;100268.94;;;23.35;100.00
44934;BME280;30667;43.614;1.442;2023-06-22T12:22:46;100271.97;;;23.46;100.00
44934;BME280;30667;43.614;1.442;2023-06-22T12:25:12;100260.09;;;23.45;100.00
44934;BME280;30667;43.614;1.442;2023-06-22T12:27:38;100256.00;;;23.39;100.00
44934;BME280;30667;43.614;1.442;2023-06-22T12:30:04;100262.97;;;23.49;100.00
44934;BME280;30667;43.614;1.442;2023-06-22T12:32:30;100268.13;;;23.50;100.00
44934;BME280;30667;43.614;1.442;2023-06-22T12:34:55;100276.50;;;23.54;100.00
44934;BME280;30667;43.614;1.442;2023-06-22T12:37:21;100271.34;;;23.52;100.00
44934;BME280;30667;43.614;1.442;2023-06-22T12:39:46;100272.84;;;23.50;100.00
44934;BME280;30667;43.614;1.442;2023-06-22T12:42:12;100280.34;;;23.49;100.00
44934;BME280;30667;43.614;1.442;2023-06-22T12:44:38;100275.97;;;23.48;100.00
44934;BME280;30667;43.614;1.442;2023-06-22T12:47:04;100279.28;;;23.38;100.00
44934;BME280;30667;43.614;1.442;2023-06-22T12:49:29;100284.81;;;23.38;100.00